createdAt,value
2022-08-20T00:02:10.577Z,14.40
2022-08-20T00:04:39.529Z,15.65
2022-08-20T00:07:07.328Z,15.20
2022-08-20T00:09:36.704Z,14.50
2022-08-20T00:12:05.830Z,15.35
2022-08-20T00:14:34.039Z,15.68
2022-08-20T00:17:01.978Z,15.32
2022-08-20T00:19:29.352Z,15.02
2022-08-20T00:21:58.095Z,15.05
2022-08-20T00:24:26.131Z,16.15
2022-08-20T00:26:53.362Z,16.02
2022-08-20T00:29:22.299Z,14.85
2022-08-20T00:31:50.568Z,16.48
2022-08-20T00:34:17.947Z,16.60
2022-08-20T00:36:45.206Z,17.70
2022-08-20T00:39:12.554Z,17.90
2022-08-20T00:41:39.850Z,19.27
2022-08-20T00:44:13.323Z,20.05
2022-08-20T00:46:40.754Z,20.45
2022-08-20T00:49:09.203Z,21.40
2022-08-20T00:51:45.219Z,22.08
2022-08-20T00:54:23.267Z,21.63
2022-08-20T00:56:55.923Z,19.75
2022-08-20T00:59:28.362Z,20.63
2022-08-20T01:01:56.689Z,20.95
2022-08-20T01:04:28.373Z,21.65
2022-08-20T01:06:55.665Z,20.13
2022-08-20T01:09:50.055Z,21.15
2022-08-20T01:12:10.571Z,21.83
2022-08-20T01:14:37.841Z,22.25
2022-08-20T01:17:07.612Z,22.35
2022-08-20T01:19:47.552Z,23.02
2022-08-20T01:22:36.090Z,23.80
2022-08-20T01:25:13.130Z,23.10
2022-08-20T01:27:42.605Z,23.10
2022-08-20T01:30:10.444Z,23.95
2022-08-20T01:32:37.671Z,23.38
2022-08-20T01:35:05.638Z,24.35
2022-08-20T01:37:32.846Z,24.92
2022-08-20T01:40:00.179Z,26.90
2022-08-20T01:42:33.047Z,26.65
2022-08-20T01:45:00.534Z,27.40
2022-08-20T01:47:31.509Z,29.15
2022-08-20T01:50:18.180Z,29.58
2022-08-20T01:53:14.714Z,29.13
2022-08-20T01:55:41.977Z,30.48
2022-08-20T01:58:09.295Z,30.48
2022-08-20T02:00:36.555Z,30.92
2022-08-20T02:03:04.356Z,30.77
2022-08-20T02:05:33.175Z,31.58
2022-08-20T02:08:00.554Z,31.77
2022-08-20T02:10:27.925Z,32.08
2022-08-20T02:13:00.166Z,32.05
2022-08-20T02:15:34.565Z,33.67
2022-08-20T02:20:37.552Z,32.92
2022-08-20T02:23:04.971Z,35.25
2022-08-20T02:25:33.667Z,34.80
2022-08-20T02:28:02.450Z,34.13
2022-08-20T02:30:33.315Z,34.17
2022-08-20T02:33:01.834Z,32.35
2022-08-20T02:35:30.773Z,33.20
2022-08-20T02:37:58.502Z,33.40
2022-08-20T02:40:27.441Z,34.15
2022-08-20T02:43:00.854Z,33.25
2022-08-20T02:45:28.295Z,34.65
2022-08-20T02:47:57.144Z,34.13
2022-08-20T02:50:25.401Z,34.42
2022-08-20T02:52:52.638Z,34.50
2022-08-20T02:55:27.058Z,35.63
2022-08-20T02:57:59.966Z,33.17
2022-08-20T03:00:28.499Z,34.15
2022-08-20T03:02:56.427Z,34.30
2022-08-20T03:05:23.677Z,34.97
2022-08-20T03:07:56.385Z,34.13
2022-08-20T03:10:25.716Z,33.22
2022-08-20T03:12:52.976Z,34.53
2022-08-20T03:15:20.528Z,34.25
2022-08-20T03:17:48.028Z,32.72
2022-08-20T03:20:15.399Z,32.47
2022-08-20T03:22:42.690Z,34.10
2022-08-20T03:25:10.262Z,33.45
2022-08-20T03:27:37.722Z,33.00
2022-08-20T03:30:06.529Z,31.52
2022-08-20T03:32:34.036Z,31.92
2022-08-20T03:35:01.364Z,33.08
2022-08-20T03:37:32.342Z,33.08
2022-08-20T03:39:59.857Z,34.03
2022-08-20T03:42:27.297Z,34.35
2022-08-20T03:44:58.720Z,32.53
2022-08-20T03:47:27.090Z,34.25
2022-08-20T03:49:59.215Z,35.80
2022-08-20T03:52:29.244Z,33.85
2022-08-20T03:54:56.628Z,32.50
2022-08-20T03:57:24.072Z,33.33
2022-08-20T03:59:54.896Z,33.30
2022-08-20T04:02:25.902Z,33.03
2022-08-20T04:04:54.922Z,34.13
2022-08-20T04:07:25.876Z,34.15
2022-08-20T04:09:54.304Z,35.88
2022-08-20T04:12:22.408Z,33.50
2022-08-20T04:14:50.278Z,33.25
2022-08-20T04:17:18.389Z,33.10
2022-08-20T04:19:46.326Z,33.45
2022-08-20T04:22:13.765Z,32.35
2022-08-20T04:24:42.690Z,33.65
2022-08-20T04:27:10.351Z,33.55
2022-08-20T04:29:37.682Z,34.03
2022-08-20T04:32:06.197Z,33.60
2022-08-20T04:34:33.845Z,33.08
2022-08-20T04:37:01.095Z,32.55
2022-08-20T04:39:28.330Z,34.60
2022-08-20T04:41:55.565Z,33.17
2022-08-20T04:44:22.815Z,32.00
2022-08-20T04:46:50.137Z,32.85
2022-08-20T04:49:17.413Z,31.83
2022-08-20T04:51:44.653Z,30.88
2022-08-20T04:54:14.220Z,32.47
2022-08-20T04:56:41.449Z,31.63
2022-08-20T04:59:08.720Z,31.90
2022-08-20T05:01:36.126Z,30.48
2022-08-20T05:04:03.851Z,30.02
2022-08-20T05:06:31.452Z,31.08
2022-08-20T05:08:59.388Z,31.88
2022-08-20T05:11:33.467Z,31.65
2022-08-20T05:14:08.563Z,30.15
2022-08-20T05:16:39.684Z,30.67
2022-08-20T05:19:08.649Z,32.13
2022-08-20T05:21:36.362Z,32.80
2022-08-20T05:24:04.039Z,32.63
2022-08-20T05:26:31.220Z,32.35
2022-08-20T05:28:59.379Z,31.35
2022-08-20T05:31:30.980Z,30.60
2022-08-20T05:34:01.811Z,31.02
2022-08-20T05:36:29.061Z,33.13
2022-08-20T05:38:56.306Z,31.58
2022-08-20T05:41:29.079Z,30.98
2022-08-20T05:44:02.765Z,29.27
2022-08-20T05:46:33.103Z,30.02
2022-08-20T05:49:01.826Z,29.65
2022-08-20T05:51:29.710Z,29.20
2022-08-20T05:53:58.263Z,28.73
2022-08-20T05:56:30.302Z,29.02
2022-08-20T05:59:00.887Z,27.92
2022-08-20T06:01:28.244Z,28.50
2022-08-20T06:04:14.912Z,27.70
2022-08-20T06:06:46.060Z,27.58
2022-08-20T06:09:15.678Z,25.73
2022-08-20T06:11:43.044Z,26.33
2022-08-20T06:14:10.275Z,25.17
2022-08-20T06:16:37.638Z,25.52
2022-08-20T06:19:05.449Z,25.45
2022-08-20T06:21:32.758Z,26.10
2022-08-20T06:24:01.117Z,24.88
2022-08-20T06:26:29.832Z,23.98
2022-08-20T06:29:02.143Z,24.85
2022-08-20T06:31:29.465Z,23.85
2022-08-20T06:33:57.079Z,24.63
2022-08-20T06:36:24.920Z,23.92
2022-08-20T06:38:56.153Z,24.05
2022-08-20T06:41:23.383Z,23.83
2022-08-20T06:44:04.118Z,22.80
2022-08-20T06:46:32.187Z,23.10
2022-08-20T06:48:59.745Z,22.00
2022-08-20T06:51:27.055Z,22.60
2022-08-20T06:53:54.320Z,22.42
2022-08-20T06:56:21.598Z,22.77
2022-08-20T06:58:49.503Z,21.48
2022-08-20T07:01:21.156Z,22.33
2022-08-20T07:03:55.431Z,21.70
2022-08-20T07:06:25.537Z,20.92
2022-08-20T07:08:54.393Z,21.15
2022-08-20T07:11:27.382Z,20.70
2022-08-20T07:13:57.027Z,19.20
2022-08-20T07:16:24.527Z,19.17
2022-08-20T07:18:51.768Z,19.45
2022-08-20T07:21:19.040Z,18.42
2022-08-20T07:23:49.347Z,17.02
2022-08-20T07:26:17.353Z,17.33
2022-08-20T07:28:44.606Z,18.00
2022-08-20T07:31:31.403Z,16.58
2022-08-20T07:33:58.903Z,17.90
2022-08-20T07:36:27.251Z,16.80
2022-08-20T07:38:54.642Z,16.33
2022-08-20T07:41:24.350Z,15.80
2022-08-20T07:43:51.592Z,15.27
2022-08-20T07:46:20.761Z,16.20
2022-08-20T07:48:49.974Z,13.52
2022-08-20T07:51:22.326Z,14.75
2022-08-20T07:53:50.233Z,15.55
2022-08-20T07:56:19.964Z,15.20
2022-08-20T07:58:50.638Z,14.75
2022-08-20T08:01:20.051Z,14.95
2022-08-20T08:03:49.796Z,15.27
2022-08-20T08:06:29.699Z,14.57
2022-08-20T08:08:59.796Z,14.25
2022-08-20T08:11:27.094Z,13.85
2022-08-20T08:13:54.595Z,15.07
2022-08-20T08:16:21.864Z,14.80
2022-08-20T08:18:50.372Z,14.75
2022-08-20T08:21:18.362Z,14.27
2022-08-20T08:23:45.711Z,14.75
2022-08-20T08:26:16.178Z,13.98
2022-08-20T08:28:46.386Z,14.52
2022-08-20T08:31:14.054Z,14.45
2022-08-20T08:33:41.754Z,14.25
2022-08-20T08:36:11.214Z,15.18
2022-08-20T08:38:39.804Z,14.00
2022-08-20T08:41:25.812Z,15.25
2022-08-20T08:43:53.690Z,14.93
2022-08-20T08:46:26.202Z,16.17
2022-08-20T08:48:54.814Z,16.73
2022-08-20T08:51:48.547Z,15.13
2022-08-20T08:54:17.383Z,15.23
2022-08-20T08:56:49.975Z,14.55
2022-08-20T08:59:18.278Z,15.70
2022-08-20T09:01:54.368Z,13.93
2022-08-20T09:04:29.114Z,14.38
2022-08-20T09:06:56.359Z,14.98
2022-08-20T09:09:35.535Z,13.77
2022-08-20T09:12:14.184Z,15.00
2022-08-20T09:14:41.434Z,14.57
2022-08-20T09:17:08.673Z,13.82
2022-08-20T09:19:35.902Z,13.82
2022-08-20T09:22:10.044Z,13.57
2022-08-20T09:24:37.525Z,12.80
2022-08-20T09:27:04.954Z,14.27
2022-08-20T09:29:32.923Z,14.20
2022-08-20T09:32:26.998Z,13.73
2022-08-20T09:34:59.167Z,13.48
2022-08-20T09:37:29.263Z,13.65
2022-08-20T09:39:58.061Z,14.32
2022-08-20T09:42:28.185Z,13.07
2022-08-20T09:44:55.569Z,13.95
2022-08-20T09:47:23.098Z,13.90
2022-08-20T09:49:50.383Z,14.18
2022-08-20T09:52:22.136Z,13.10
2022-08-20T09:54:49.596Z,13.88
2022-08-20T09:57:17.504Z,13.68
2022-08-20T09:59:45.160Z,13.10
2022-08-20T10:02:12.414Z,13.50
2022-08-20T10:04:39.651Z,11.43
2022-08-20T10:07:08.727Z,13.10
2022-08-20T10:09:36.966Z,12.70
2022-08-20T10:12:04.818Z,13.45
2022-08-20T10:14:32.087Z,12.95
2022-08-20T10:17:00.083Z,13.27
2022-08-20T10:19:28.243Z,13.57
2022-08-20T10:21:55.552Z,11.55
2022-08-20T10:24:23.099Z,12.65
2022-08-20T10:26:50.447Z,14.73
2022-08-20T10:29:17.725Z,12.20
2022-08-20T10:31:44.964Z,13.50
2022-08-20T10:34:12.224Z,13.55
2022-08-20T10:36:39.515Z,12.25
2022-08-20T10:39:06.738Z,12.70
2022-08-20T10:41:38.354Z,13.07
2022-08-20T10:44:06.939Z,12.35
2022-08-20T10:46:34.226Z,13.80
2022-08-20T10:49:01.506Z,14.07
2022-08-20T10:51:32.256Z,14.32
2022-08-20T10:54:01.242Z,13.63
2022-08-20T10:56:28.488Z,14.15
2022-08-20T10:58:55.738Z,13.82
2022-08-20T11:01:31.433Z,13.73
2022-08-20T11:04:00.226Z,12.15
2022-08-20T11:06:27.443Z,12.13
2022-08-20T11:08:56.949Z,11.93
2022-08-20T11:11:24.498Z,12.23
2022-08-20T11:13:51.721Z,12.50
2022-08-20T11:16:18.975Z,13.18
2022-08-20T11:18:47.669Z,11.52
2022-08-20T11:21:15.283Z,12.98
2022-08-20T11:23:42.515Z,12.07
2022-08-20T11:26:20.766Z,11.65
2022-08-20T11:28:48.236Z,12.63
2022-08-20T11:31:15.496Z,14.32
2022-08-20T11:33:42.731Z,14.80
2022-08-20T11:36:09.997Z,12.38
2022-08-20T11:38:37.231Z,12.68
2022-08-20T11:41:04.501Z,11.52
2022-08-20T11:43:31.732Z,8.93
2022-08-20T11:45:58.978Z,7.13
2022-08-20T11:48:26.203Z,6.72
2022-08-20T11:50:53.487Z,6.25
2022-08-20T11:53:20.731Z,7.05
2022-08-20T11:55:49.521Z,8.57
2022-08-20T11:58:16.748Z,7.55
2022-08-20T12:00:43.993Z,6.90
2022-08-20T12:03:12.326Z,7.47
2022-08-20T12:05:40.994Z,7.15
2022-08-20T12:08:09.118Z,7.60
2022-08-20T12:10:37.127Z,7.70
2022-08-20T12:13:05.363Z,8.15
2022-08-20T12:15:34.166Z,9.23
2022-08-20T12:18:01.502Z,8.50
2022-08-20T12:20:28.749Z,9.02
2022-08-20T12:22:56.185Z,8.90
2022-08-20T12:25:23.575Z,10.68
2022-08-20T12:27:50.862Z,9.50
2022-08-20T12:30:20.733Z,9.90
2022-08-20T12:32:48.016Z,9.95
2022-08-20T12:35:15.863Z,9.43
2022-08-20T12:37:43.390Z,8.35
2022-08-20T12:40:15.695Z,10.27
2022-08-20T12:42:43.006Z,9.18
2022-08-20T12:45:10.720Z,10.85
2022-08-20T12:47:39.704Z,9.38
2022-08-20T12:50:13.824Z,9.30
2022-08-20T12:52:41.147Z,9.60
2022-08-20T12:55:09.310Z,11.13
2022-08-20T12:57:38.347Z,9.68
2022-08-20T13:00:11.548Z,8.20
2022-08-20T13:02:40.856Z,9.77
2022-08-20T13:05:12.043Z,9.50
2022-08-20T13:07:39.647Z,11.57
2022-08-20T13:10:07.871Z,11.70
2022-08-20T13:12:35.389Z,9.95
2022-08-20T13:15:02.744Z,11.85
2022-08-20T13:17:38.703Z,11.60
2022-08-20T13:20:08.025Z,11.23
2022-08-20T13:22:35.397Z,10.68
2022-08-20T13:25:02.822Z,10.05
2022-08-20T13:27:30.059Z,10.90
2022-08-20T13:29:58.820Z,9.60
2022-08-20T13:32:26.618Z,9.18
2022-08-20T13:34:53.934Z,8.85
2022-08-20T13:37:25.547Z,7.75
2022-08-20T13:39:54.284Z,7.90
2022-08-20T13:42:21.690Z,7.55
2022-08-20T13:44:49.014Z,7.53
2022-08-20T13:47:27.569Z,7.97
2022-08-20T13:49:59.612Z,7.97
2022-08-20T13:52:26.960Z,8.30
2022-08-20T13:54:54.402Z,7.88
2022-08-20T13:57:22.270Z,3.35
2022-08-20T13:59:50.999Z,3.15
2022-08-20T14:02:18.383Z,3.00
2022-08-20T14:04:45.987Z,3.38
2022-08-20T14:07:21.760Z,3.00
2022-08-20T14:09:56.884Z,3.45
2022-08-20T14:12:24.475Z,4.10
2022-08-20T14:14:52.174Z,5.93
2022-08-20T14:17:25.934Z,5.72
2022-08-20T14:20:00.674Z,3.75
2022-08-20T14:22:28.726Z,3.97
2022-08-20T14:24:56.491Z,2.03
2022-08-20T14:27:29.082Z,2.53
2022-08-20T14:29:58.398Z,2.67
2022-08-20T14:32:26.260Z,2.40
2022-08-20T14:34:54.218Z,2.63
2022-08-20T14:37:26.682Z,2.80
2022-08-20T14:39:55.064Z,2.35
2022-08-20T14:42:22.930Z,2.65
2022-08-20T14:44:50.853Z,2.53
2022-08-20T14:47:38.278Z,2.25
2022-08-20T14:50:08.642Z,2.70
2022-08-20T14:52:36.734Z,2.45
2022-08-20T14:55:05.023Z,2.33
2022-08-20T14:57:32.495Z,2.22
2022-08-20T14:59:59.792Z,2.40
2022-08-20T15:02:27.014Z,2.50
2022-08-20T15:04:55.748Z,2.45
2022-08-20T15:07:30.953Z,2.47
2022-08-20T15:09:58.334Z,3.13
2022-08-20T15:12:25.562Z,2.63
2022-08-20T15:14:52.790Z,2.80
2022-08-20T15:17:21.635Z,2.63
2022-08-20T15:19:48.947Z,2.60
2022-08-20T15:22:16.493Z,3.38
2022-08-20T15:24:43.715Z,4.00
2022-08-20T15:27:22.483Z,3.70
2022-08-20T15:29:51.009Z,3.70
2022-08-20T15:32:18.585Z,2.20
2022-08-20T15:34:45.948Z,2.53
2022-08-20T15:37:15.072Z,2.08
2022-08-20T15:39:45.462Z,1.98
2022-08-20T15:42:15.938Z,2.25
2022-08-20T15:44:43.436Z,2.60
2022-08-20T15:47:19.826Z,2.22
2022-08-20T15:49:47.576Z,2.80
2022-08-20T15:52:14.981Z,2.67
2022-08-20T15:54:42.225Z,2.70
2022-08-20T15:57:13.936Z,3.15
2022-08-20T16:00:04.035Z,2.88
2022-08-20T16:02:51.928Z,3.60
2022-08-20T16:06:03.949Z,3.03
2022-08-20T16:08:35.444Z,3.15
2022-08-20T16:11:22.087Z,4.20
2022-08-20T16:13:57.489Z,4.28
2022-08-20T16:16:42.163Z,3.75
2022-08-20T16:19:12.043Z,3.60
2022-08-20T16:21:40.796Z,4.10
2022-08-20T16:24:08.175Z,3.80
2022-08-20T16:26:43.602Z,3.38
2022-08-20T16:29:19.827Z,3.50
2022-08-20T16:32:00.367Z,3.70
2022-08-20T16:34:40.742Z,3.33
2022-08-20T16:37:44.856Z,3.05
2022-08-20T16:40:34.408Z,3.20
2022-08-20T16:43:04.740Z,3.13
2022-08-20T16:45:50.887Z,2.47
2022-08-20T16:48:18.663Z,2.53
2022-08-20T16:50:58.358Z,2.85
2022-08-20T16:53:25.903Z,3.10
2022-08-20T16:55:53.623Z,3.40
2022-08-20T16:58:20.859Z,3.15
2022-08-20T17:00:48.335Z,3.00
2022-08-20T17:03:38.603Z,2.92
2022-08-20T17:06:36.099Z,2.60
2022-08-20T17:09:11.104Z,2.55
2022-08-20T17:11:38.467Z,2.88
2022-08-20T17:14:13.920Z,2.65
2022-08-20T17:16:49.003Z,2.60
2022-08-20T17:19:34.313Z,2.65
2022-08-20T17:22:11.923Z,2.30
2022-08-20T17:24:40.122Z,2.88
2022-08-20T17:27:14.987Z,2.63
2022-08-20T17:32:18.501Z,2.60
2022-08-20T17:34:53.784Z,2.50
2022-08-20T17:37:35.789Z,2.53
2022-08-20T17:40:24.532Z,2.67
2022-08-20T17:42:53.511Z,2.75
2022-08-20T17:45:26.349Z,2.92
2022-08-20T17:47:53.804Z,2.75
2022-08-20T17:50:24.077Z,2.33
2022-08-20T17:52:54.864Z,2.55
2022-08-20T17:55:22.208Z,2.67
2022-08-20T17:57:52.597Z,2.65
2022-08-20T18:00:25.991Z,2.92
2022-08-20T18:02:55.043Z,2.85
2022-08-20T18:05:22.497Z,3.33
2022-08-20T18:08:08.741Z,2.75
2022-08-20T18:10:42.647Z,3.00
2022-08-20T18:13:19.183Z,3.23
2022-08-20T18:15:57.076Z,2.90
2022-08-20T18:18:52.929Z,3.55
2022-08-20T18:21:33.503Z,3.47
2022-08-20T18:24:06.083Z,3.63
2022-08-20T18:26:43.194Z,3.58
2022-08-20T18:29:13.027Z,3.80
2022-08-20T18:31:50.705Z,4.20
2022-08-20T18:34:33.934Z,3.47
2022-08-20T18:37:06.587Z,3.72
2022-08-20T18:39:36.059Z,4.35
2022-08-20T18:42:03.383Z,4.15
2022-08-20T18:44:41.855Z,5.13
2022-08-20T18:47:27.888Z,5.45
2022-08-20T18:50:06.530Z,5.82
2022-08-20T18:52:51.507Z,4.88
2022-08-20T18:55:36.875Z,4.53
2022-08-20T18:58:08.955Z,4.45
2022-08-20T19:00:44.488Z,4.93
2022-08-20T19:03:35.908Z,4.45
2022-08-20T19:06:06.050Z,4.15
2022-08-20T19:08:53.632Z,3.97
2022-08-20T19:11:46.935Z,4.20
2022-08-20T19:14:26.761Z,4.07
2022-08-20T19:17:33.147Z,3.80
2022-08-20T19:20:01.373Z,3.55
2022-08-20T19:22:28.684Z,4.10
2022-08-20T19:24:58.442Z,3.95
2022-08-20T19:27:26.994Z,3.50
2022-08-20T19:29:57.138Z,3.60
2022-08-20T19:32:29.163Z,4.20
2022-08-20T19:34:58.264Z,3.50
2022-08-20T19:37:38.512Z,3.80
2022-08-20T19:40:39.351Z,3.67
2022-08-20T19:43:12.343Z,3.80
2022-08-20T19:45:41.511Z,3.80
2022-08-20T19:48:30.515Z,3.90
2022-08-20T19:51:00.619Z,3.85
2022-08-20T19:53:32.779Z,3.25
2022-08-20T19:56:05.972Z,4.07
2022-08-20T19:58:33.598Z,3.50
2022-08-20T20:01:01.676Z,3.60
2022-08-20T20:03:37.740Z,3.65
2022-08-20T20:06:17.537Z,3.78
2022-08-20T20:08:51.681Z,3.25
2022-08-20T20:11:20.403Z,3.53
2022-08-20T20:13:47.630Z,4.00
2022-08-20T20:16:17.214Z,3.88
2022-08-20T20:18:44.439Z,3.58
2022-08-20T20:21:22.006Z,3.55
2022-08-20T20:23:59.289Z,3.78
2022-08-20T20:26:34.299Z,3.75
2022-08-20T20:29:12.621Z,3.33
2022-08-20T20:31:49.775Z,3.47
2022-08-20T20:34:18.437Z,3.45
2022-08-20T20:36:46.979Z,3.70
2022-08-20T20:39:35.129Z,3.47
2022-08-20T20:42:04.326Z,3.17
2022-08-20T20:44:37.602Z,3.17
2022-08-20T20:47:17.412Z,3.42
2022-08-20T20:49:56.239Z,3.17
2022-08-20T20:52:30.873Z,3.28
2022-08-20T20:55:09.140Z,2.97
2022-08-20T20:57:38.582Z,3.22
2022-08-20T21:00:13.083Z,2.50
2022-08-20T21:02:40.680Z,2.70
2022-08-20T21:05:08.291Z,2.58
2022-08-20T21:07:43.665Z,2.53
2022-08-20T21:10:10.908Z,2.50
2022-08-20T21:12:38.202Z,2.50
2022-08-20T21:15:05.856Z,2.33
2022-08-20T21:17:33.211Z,2.88
2022-08-20T21:20:01.776Z,2.30
2022-08-20T21:22:29.048Z,2.40
2022-08-20T21:24:56.278Z,2.35
2022-08-20T21:27:25.703Z,2.10
2022-08-20T21:29:53.090Z,2.53
2022-08-20T21:32:21.131Z,2.33
2022-08-20T21:34:48.759Z,2.20
2022-08-20T21:37:16.303Z,2.45
2022-08-20T21:39:43.687Z,2.50
2022-08-20T21:42:21.066Z,2.10
2022-08-20T21:47:23.479Z,2.30
2022-08-20T21:49:50.707Z,2.22
2022-08-20T21:52:18.786Z,2.40
2022-08-20T21:54:46.044Z,2.30
2022-08-20T21:57:29.766Z,2.33
2022-08-20T21:59:57.607Z,2.20
2022-08-20T22:02:26.009Z,2.10
2022-08-20T22:04:53.870Z,2.30
2022-08-20T22:07:21.363Z,2.40
2022-08-20T22:09:48.623Z,1.92
2022-08-20T22:12:18.774Z,2.40
2022-08-20T22:14:46.158Z,2.00
2022-08-20T22:17:13.799Z,2.42
2022-08-20T22:19:41.068Z,1.80
2022-08-20T22:22:11.607Z,1.98
2022-08-20T22:24:39.941Z,2.40
2022-08-20T22:27:07.257Z,1.95
2022-08-20T22:29:34.508Z,2.13
2022-08-20T22:32:01.770Z,1.85
2022-08-20T22:34:30.404Z,2.00
2022-08-20T22:36:57.665Z,2.00
2022-08-20T22:39:24.913Z,2.00
2022-08-20T22:41:52.189Z,1.70
2022-08-20T22:44:19.445Z,2.08
2022-08-20T22:46:48.947Z,2.10
2022-08-20T22:49:19.086Z,2.03
2022-08-20T22:51:46.290Z,2.38
2022-08-20T22:54:16.390Z,1.92
2022-08-20T22:56:43.584Z,2.20
2022-08-20T22:59:11.034Z,2.28
2022-08-20T23:01:38.405Z,2.13
2022-08-20T23:04:17.322Z,2.33
2022-08-20T23:06:44.583Z,2.65
2022-08-20T23:09:12.870Z,2.40
2022-08-20T23:11:40.652Z,2.33
2022-08-20T23:14:07.892Z,2.25
2022-08-20T23:16:35.480Z,2.38
2022-08-20T23:19:02.707Z,2.38
2022-08-20T23:21:29.964Z,2.30
2022-08-20T23:23:57.174Z,1.90
2022-08-20T23:26:24.970Z,2.00
2022-08-20T23:28:52.205Z,2.55
2022-08-20T23:31:19.484Z,1.60
2022-08-20T23:33:46.848Z,1.90
2022-08-20T23:36:14.116Z,2.50
2022-08-20T23:38:41.922Z,1.90
2022-08-20T23:41:09.127Z,1.98
2022-08-20T23:43:37.308Z,1.70
2022-08-20T23:46:05.387Z,1.98
2022-08-20T23:48:32.638Z,2.22
2022-08-20T23:50:59.851Z,1.80
2022-08-20T23:53:27.167Z,2.00
2022-08-20T23:55:54.379Z,2.30
2022-08-20T23:58:22.167Z,2.08
